sensor_id;sensor_type;location;lat;lon;timestamp;pressure;altitude;pressure_sealevel;temperature;humidity
48015;BME280;33780;51.034;7.120;2022-11-03T00:01:53;100931.41;;;10.47;65.30
48015;BME280;33780;51.034;7.120;2022-11-03T00:04:20;100932.25;;;10.48;65.23
48015;BME280;33780;51.034;7.120;2022-11-03T00:06:48;100927.63;;;10.50;65.27
48015;BME280;33780;51.034;7.120;2022-11-03T00:09:15;100936.38;;;10.52;64.90
48015;BME280;33780;51.034;7.120;2022-11-03T00:11:43;100931.88;;;10.52;65.33
48015;BME280;33780;51.034;7.120;2022-11-03T00:14:10;100929.06;;;10.54;65.85
48015;BME280;33780;51.034;7.120;2022-11-03T00:16:36;100930.75;;;10.55;65.36
48015;BME280;33780;51.034;7.120;2022-11-03T00:19:02;100930.63;;;10.56;65.46
48015;BME280;33780;51.034;7.120;2022-11-03T00:21:28;100916.28;;;10.57;65.67
48015;BME280;33780;51.034;7.120;2022-11-03T00:23:53;100919.78;;;10.58;65.66
48015;BME280;33780;51.034;7.120;2022-11-03T00:26:23;100912.53;;;10.60;65.86
48015;BME280;33780;51.034;7.120;2022-11-03T00:28:51;100915.91;;;10.62;65.81
48015;BME280;33780;51.034;7.120;2022-11-03T00:31:19;100911.16;;;10.66;65.44
48015;BME280;33780;51.034;7.120;2022-11-03T00:33:45;100915.41;;;10.68;65.78
48015;BME280;33780;51.034;7.120;2022-11-03T00:36:13;100897.25;;;10.72;65.77
48015;BME280;33780;51.034;7.120;2022-11-03T00:38:39;100901.34;;;10.76;65.79
48015;BME280;33780;51.034;7.120;2022-11-03T00:41:05;100899.28;;;10.79;66.13
48015;BME280;33780;51.034;7.120;2022-11-03T00:43:32;100898.06;;;10.83;65.77
48015;BME280;33780;51.034;7.120;2022-11-03T00:45:59;100890.59;;;10.87;66.23
48015;BME280;33780;51.034;7.120;2022-11-03T00:48:25;100893.88;;;10.90;66.01
48015;BME280;33780;51.034;7.120;2022-11-03T00:51:15;100890.06;;;10.93;66.30
48015;BME280;33780;51.034;7.120;2022-11-03T00:53:52;100885.34;;;10.97;65.94
48015;BME280;33780;51.034;7.120;2022-11-03T00:56:19;100892.97;;;11.01;66.31
48015;BME280;33780;51.034;7.120;2022-11-03T00:58:46;100884.53;;;11.06;66.21
48015;BME280;33780;51.034;7.120;2022-11-03T01:01:16;100886.81;;;11.10;66.56
48015;BME280;33780;51.034;7.120;2022-11-03T01:03:43;100883.78;;;11.15;66.56
48015;BME280;33780;51.034;7.120;2022-11-03T01:06:27;100873.63;;;11.18;66.26
48015;BME280;33780;51.034;7.120;2022-11-03T01:09:11;100878.72;;;11.22;66.20
48015;BME280;33780;51.034;7.120;2022-11-03T01:11:36;100874.94;;;11.24;66.22
48015;BME280;33780;51.034;7.120;2022-11-03T01:14:09;100866.63;;;11.27;66.53
48015;BME280;33780;51.034;7.120;2022-11-03T01:16:36;100870.84;;;11.30;66.57
48015;BME280;33780;51.034;7.120;2022-11-03T01:19:01;100870.63;;;11.33;66.43
48015;BME280;33780;51.034;7.120;2022-11-03T01:21:27;100865.13;;;11.34;66.74
48015;BME280;33780;51.034;7.120;2022-11-03T01:23:52;100866.69;;;11.37;66.25
48015;BME280;33780;51.034;7.120;2022-11-03T01:29:51;100853.00;;;11.40;66.37
48015;BME280;33780;51.034;7.120;2022-11-03T01:32:17;100851.06;;;11.42;66.37
48015;BME280;33780;51.034;7.120;2022-11-03T01:34:42;100858.09;;;11.43;66.85
48015;BME280;33780;51.034;7.120;2022-11-03T01:37:08;100851.91;;;11.42;66.70
48015;BME280;33780;51.034;7.120;2022-11-03T01:39:33;100841.88;;;11.44;66.80
48015;BME280;33780;51.034;7.120;2022-11-03T01:41:59;100840.91;;;11.45;66.64
48015;BME280;33780;51.034;7.120;2022-11-03T01:44:30;100845.16;;;11.48;66.39
48015;BME280;33780;51.034;7.120;2022-11-03T01:47:05;100832.59;;;11.48;66.71
48015;BME280;33780;51.034;7.120;2022-11-03T01:49:35;100830.78;;;11.49;66.94
48015;BME280;33780;51.034;7.120;2022-11-03T01:54:42;100820.91;;;11.49;66.86
48015;BME280;33780;51.034;7.120;2022-11-03T01:57:13;100828.97;;;11.49;66.78
48015;BME280;33780;51.034;7.120;2022-11-03T01:59:41;100822.59;;;11.50;66.69
48015;BME280;33780;51.034;7.120;2022-11-03T02:02:08;100812.75;;;11.51;66.98
48015;BME280;33780;51.034;7.120;2022-11-03T02:04:34;100808.22;;;11.52;66.96
48015;BME280;33780;51.034;7.120;2022-11-03T02:07:23;100803.56;;;11.54;66.78
48015;BME280;33780;51.034;7.120;2022-11-03T02:09:50;100806.25;;;11.54;67.27
48015;BME280;33780;51.034;7.120;2022-11-03T02:12:16;100802.72;;;11.53;67.12
48015;BME280;33780;51.034;7.120;2022-11-03T02:15:03;100802.72;;;11.53;67.02
48015;BME280;33780;51.034;7.120;2022-11-03T02:17:31;100798.22;;;11.54;66.99
48015;BME280;33780;51.034;7.120;2022-11-03T02:20:02;100785.81;;;11.53;67.10
48015;BME280;33780;51.034;7.120;2022-11-03T02:22:41;100785.81;;;11.53;67.46
48015;BME280;33780;51.034;7.120;2022-11-03T02:27:38;100780.44;;;11.53;67.49
48015;BME280;33780;51.034;7.120;2022-11-03T02:30:04;100782.13;;;11.54;68.00
48015;BME280;33780;51.034;7.120;2022-11-03T02:32:37;100767.75;;;11.55;67.67
48015;BME280;33780;51.034;7.120;2022-11-03T02:35:36;100764.22;;;11.54;67.62
48015;BME280;33780;51.034;7.120;2022-11-03T02:38:08;100750.97;;;11.53;67.72
48015;BME280;33780;51.034;7.120;2022-11-03T02:40:39;100754.47;;;11.53;68.07
48015;BME280;33780;51.034;7.120;2022-11-03T02:43:07;100754.47;;;11.53;67.86
48015;BME280;33780;51.034;7.120;2022-11-03T02:45:34;100749.00;;;11.55;68.18
48015;BME280;33780;51.034;7.120;2022-11-03T02:48:00;100749.00;;;11.55;67.77
48015;BME280;33780;51.034;7.120;2022-11-03T02:50:29;100743.34;;;11.58;68.21
48015;BME280;33780;51.034;7.120;2022-11-03T02:52:55;100746.72;;;11.60;68.13
48015;BME280;33780;51.034;7.120;2022-11-03T02:55:50;100744.91;;;11.60;67.76
48015;BME280;33780;51.034;7.120;2022-11-03T03:00:53;100737.56;;;11.62;67.97
48015;BME280;33780;51.034;7.120;2022-11-03T03:03:25;100730.38;;;11.63;67.94
48015;BME280;33780;51.034;7.120;2022-11-03T03:05:58;100723.16;;;11.63;67.86
48015;BME280;33780;51.034;7.120;2022-11-03T03:08:27;100717.81;;;11.63;68.02
48015;BME280;33780;51.034;7.120;2022-11-03T03:10:54;100718.66;;;11.64;68.09
48015;BME280;33780;51.034;7.120;2022-11-03T03:13:22;100721.34;;;11.64;68.24
48015;BME280;33780;51.034;7.120;2022-11-03T03:16:11;100710.63;;;11.64;68.10
48015;BME280;33780;51.034;7.120;2022-11-03T03:18:50;100710.63;;;11.64;68.39
48015;BME280;33780;51.034;7.120;2022-11-03T03:21:22;100710.63;;;11.64;68.48
48015;BME280;33780;51.034;7.120;2022-11-03T03:23:58;100704.41;;;11.63;68.34
48015;BME280;33780;51.034;7.120;2022-11-03T03:26:27;100687.47;;;11.63;68.46
48015;BME280;33780;51.034;7.120;2022-11-03T03:29:10;100688.47;;;11.62;68.24
48015;BME280;33780;51.034;7.120;2022-11-03T03:31:39;100691.16;;;11.62;68.28
48015;BME280;33780;51.034;7.120;2022-11-03T03:34:07;100697.50;;;11.61;68.49
48015;BME280;33780;51.034;7.120;2022-11-03T03:36:34;100693.13;;;11.60;68.76
48015;BME280;33780;51.034;7.120;2022-11-03T03:39:03;100695.94;;;11.58;68.29
48015;BME280;33780;51.034;7.120;2022-11-03T03:41:32;100694.97;;;11.59;68.60
48015;BME280;33780;51.034;7.120;2022-11-03T03:44:01;100685.22;;;11.58;68.44
48015;BME280;33780;51.034;7.120;2022-11-03T03:46:33;100678.16;;;11.57;68.47
48015;BME280;33780;51.034;7.120;2022-11-03T03:49:00;100672.81;;;11.57;68.40
48015;BME280;33780;51.034;7.120;2022-11-03T03:51:27;100684.53;;;11.56;68.48
48015;BME280;33780;51.034;7.120;2022-11-03T03:53:54;100677.47;;;11.55;68.44
48015;BME280;33780;51.034;7.120;2022-11-03T03:57:12;100681.13;;;11.54;68.53
48015;BME280;33780;51.034;7.120;2022-11-03T03:59:11;100674.22;;;11.52;68.37
48015;BME280;33780;51.034;7.120;2022-11-03T04:01:36;100673.53;;;11.49;68.45
48015;BME280;33780;51.034;7.120;2022-11-03T04:04:01;100668.16;;;11.49;68.95
48015;BME280;33780;51.034;7.120;2022-11-03T04:06:27;100673.78;;;11.46;69.03
48015;BME280;33780;51.034;7.120;2022-11-03T04:08:52;100666.84;;;11.44;68.96
48015;BME280;33780;51.034;7.120;2022-11-03T04:11:18;100661.66;;;11.42;68.89
48015;BME280;33780;51.034;7.120;2022-11-03T04:14:02;100661.22;;;11.37;68.98
48015;BME280;33780;51.034;7.120;2022-11-03T04:16:46;100657.69;;;11.37;69.36
48015;BME280;33780;51.034;7.120;2022-11-03T04:19:29;100659.94;;;11.32;69.04
48015;BME280;33780;51.034;7.120;2022-11-03T04:22:13;100656.66;;;11.28;69.19
48015;BME280;33780;51.034;7.120;2022-11-03T04:24:46;100654.41;;;11.24;69.04
48015;BME280;33780;51.034;7.120;2022-11-03T04:27:28;100638.75;;;11.19;69.49
48015;BME280;33780;51.034;7.120;2022-11-03T04:29:56;100640.88;;;11.15;69.03
48015;BME280;33780;51.034;7.120;2022-11-03T04:32:23;100641.13;;;11.12;69.34
48015;BME280;33780;51.034;7.120;2022-11-03T04:34:49;100632.53;;;11.09;69.72
48015;BME280;33780;51.034;7.120;2022-11-03T04:37:15;100628.44;;;11.05;69.28
48015;BME280;33780;51.034;7.120;2022-11-03T04:39:41;100622.38;;;11.03;69.27
48015;BME280;33780;51.034;7.120;2022-11-03T04:42:18;100618.28;;;10.99;69.65
48015;BME280;33780;51.034;7.120;2022-11-03T04:44:46;100612.06;;;10.98;69.50
48015;BME280;33780;51.034;7.120;2022-11-03T04:47:12;100615.13;;;10.94;69.80
48015;BME280;33780;51.034;7.120;2022-11-03T04:49:38;100621.34;;;10.94;69.73
48015;BME280;33780;51.034;7.120;2022-11-03T04:52:17;100619.50;;;10.95;69.74
48015;BME280;33780;51.034;7.120;2022-11-03T04:54:44;100613.19;;;10.96;69.86
48015;BME280;33780;51.034;7.120;2022-11-03T04:57:12;100613.78;;;10.99;69.84
48015;BME280;33780;51.034;7.120;2022-11-03T04:59:42;100595.72;;;11.01;70.04
48015;BME280;33780;51.034;7.120;2022-11-03T05:02:12;100599.81;;;11.05;70.54
48015;BME280;33780;51.034;7.120;2022-11-03T05:04:38;100593.34;;;11.08;69.94
48015;BME280;33780;51.034;7.120;2022-11-03T05:07:22;100583.19;;;11.11;69.98
48015;BME280;33780;51.034;7.120;2022-11-03T05:09:50;100589.00;;;11.16;70.08
48015;BME280;33780;51.034;7.120;2022-11-03T05:12:17;100585.19;;;11.19;70.19
48015;BME280;33780;51.034;7.120;2022-11-03T05:14:42;100581.25;;;11.23;70.26
48015;BME280;33780;51.034;7.120;2022-11-03T05:19:50;100583.22;;;11.31;70.38
48015;BME280;33780;51.034;7.120;2022-11-03T05:22:23;100581.13;;;11.34;70.29
48015;BME280;33780;51.034;7.120;2022-11-03T05:24:55;100572.81;;;11.37;70.43
48015;BME280;33780;51.034;7.120;2022-11-03T05:27:22;100568.00;;;11.41;70.34
48015;BME280;33780;51.034;7.120;2022-11-03T05:29:52;100557.69;;;11.46;70.43
48015;BME280;33780;51.034;7.120;2022-11-03T05:32:27;100551.19;;;11.48;70.25
48015;BME280;33780;51.034;7.120;2022-11-03T05:34:54;100547.41;;;11.51;70.09
48015;BME280;33780;51.034;7.120;2022-11-03T05:37:32;100548.97;;;11.54;70.06
48015;BME280;33780;51.034;7.120;2022-11-03T05:40:02;100537.25;;;11.55;70.45
48015;BME280;33780;51.034;7.120;2022-11-03T05:42:36;100533.44;;;11.57;70.59
48015;BME280;33780;51.034;7.120;2022-11-03T05:45:20;100527.09;;;11.58;70.09
48015;BME280;33780;51.034;7.120;2022-11-03T05:47:47;100526.94;;;11.60;70.36
48015;BME280;33780;51.034;7.120;2022-11-03T05:50:21;100519.75;;;11.60;70.15
48015;BME280;33780;51.034;7.120;2022-11-03T05:52:51;100515.22;;;11.61;70.65
48015;BME280;33780;51.034;7.120;2022-11-03T05:55:26;100522.44;;;11.60;70.33
48015;BME280;33780;51.034;7.120;2022-11-03T05:57:58;100524.13;;;11.61;70.28
48015;BME280;33780;51.034;7.120;2022-11-03T06:00:29;100527.66;;;11.62;70.35
48015;BME280;33780;51.034;7.120;2022-11-03T06:02:59;100527.66;;;11.62;70.49
48015;BME280;33780;51.034;7.120;2022-11-03T06:05:25;100525.66;;;11.64;70.29
48015;BME280;33780;51.034;7.120;2022-11-03T06:07:55;100523.97;;;11.63;70.36
48015;BME280;33780;51.034;7.120;2022-11-03T06:10:30;100522.00;;;11.65;70.93
48015;BME280;33780;51.034;7.120;2022-11-03T06:13:03;100526.38;;;11.66;70.27
48015;BME280;33780;51.034;7.120;2022-11-03T06:15:31;100521.00;;;11.66;70.44
48015;BME280;33780;51.034;7.120;2022-11-03T06:17:57;100521.84;;;11.66;70.85
48015;BME280;33780;51.034;7.120;2022-11-03T06:20:23;100523.56;;;11.67;70.82
48015;BME280;33780;51.034;7.120;2022-11-03T06:22:51;100514.53;;;11.68;70.38
48015;BME280;33780;51.034;7.120;2022-11-03T06:25:25;100511.72;;;11.70;70.56
48015;BME280;33780;51.034;7.120;2022-11-03T06:27:52;100507.34;;;11.69;70.42
48015;BME280;33780;51.034;7.120;2022-11-03T06:32:53;100502.69;;;11.71;70.53
48015;BME280;33780;51.034;7.120;2022-11-03T06:35:20;100493.63;;;11.72;70.63
48015;BME280;33780;51.034;7.120;2022-11-03T06:37:45;100484.75;;;11.71;70.42
48015;BME280;33780;51.034;7.120;2022-11-03T06:40:31;100480.25;;;11.72;70.53
48015;BME280;33780;51.034;7.120;2022-11-03T06:43:18;100473.88;;;11.73;70.82
48015;BME280;33780;51.034;7.120;2022-11-03T06:45:48;100456.94;;;11.72;70.70
48015;BME280;33780;51.034;7.120;2022-11-03T06:48:20;100457.78;;;11.73;70.63
48015;BME280;33780;51.034;7.120;2022-11-03T06:50:46;100447.06;;;11.73;70.54
48015;BME280;33780;51.034;7.120;2022-11-03T06:53:21;100456.81;;;11.74;70.57
48015;BME280;33780;51.034;7.120;2022-11-03T06:55:48;100451.44;;;11.74;70.81
48015;BME280;33780;51.034;7.120;2022-11-03T06:58:24;100456.66;;;11.75;70.73
48015;BME280;33780;51.034;7.120;2022-11-03T07:00:52;100455.66;;;11.76;70.84
48015;BME280;33780;51.034;7.120;2022-11-03T07:03:23;100441.28;;;11.77;70.52
48015;BME280;33780;51.034;7.120;2022-11-03T07:05:59;100444.78;;;11.78;70.48
48015;BME280;33780;51.034;7.120;2022-11-03T07:08:33;100438.47;;;11.79;70.85
48015;BME280;33780;51.034;7.120;2022-11-03T07:11:03;100436.75;;;11.78;70.40
48015;BME280;33780;51.034;7.120;2022-11-03T07:13:33;100425.06;;;11.79;70.44
48015;BME280;33780;51.034;7.120;2022-11-03T07:15:58;100427.75;;;11.79;70.82
48015;BME280;33780;51.034;7.120;2022-11-03T07:18:33;100424.06;;;11.80;70.46
48015;BME280;33780;51.034;7.120;2022-11-03T07:21:06;100426.59;;;11.82;70.67
48015;BME280;33780;51.034;7.120;2022-11-03T07:23:31;100422.09;;;11.82;70.96
48015;BME280;33780;51.034;7.120;2022-11-03T07:25:59;100419.25;;;11.84;70.67
48015;BME280;33780;51.034;7.120;2022-11-03T07:28:30;100419.13;;;11.85;70.58
48015;BME280;33780;51.034;7.120;2022-11-03T07:30:58;100419.84;;;11.87;70.60
48015;BME280;33780;51.034;7.120;2022-11-03T07:33:25;100424.19;;;11.88;71.02
48015;BME280;33780;51.034;7.120;2022-11-03T07:35:53;100419.53;;;11.90;70.71
48015;BME280;33780;51.034;7.120;2022-11-03T07:38:21;100425.44;;;11.94;70.71
48015;BME280;33780;51.034;7.120;2022-11-03T07:40:49;100417.94;;;11.97;70.70
48015;BME280;33780;51.034;7.120;2022-11-03T07:43:21;100408.59;;;12.01;70.51
48015;BME280;33780;51.034;7.120;2022-11-03T07:45:49;100413.53;;;12.06;70.54
48015;BME280;33780;51.034;7.120;2022-11-03T07:48:24;100399.81;;;12.09;70.60
48015;BME280;33780;51.034;7.120;2022-11-03T07:50:52;100395.00;;;12.13;70.49
48015;BME280;33780;51.034;7.120;2022-11-03T07:53:33;100399.91;;;12.17;70.51
48015;BME280;33780;51.034;7.120;2022-11-03T07:55:58;100397.75;;;12.21;70.47
48015;BME280;33780;51.034;7.120;2022-11-03T07:58:34;100395.50;;;12.26;70.22
48015;BME280;33780;51.034;7.120;2022-11-03T08:01:01;100393.19;;;12.31;70.44
48015;BME280;33780;51.034;7.120;2022-11-03T08:03:45;100387.38;;;12.35;70.36
48015;BME280;33780;51.034;7.120;2022-11-03T08:06:11;100380.56;;;12.41;70.64
48015;BME280;33780;51.034;7.120;2022-11-03T08:08:37;100382.78;;;12.46;70.39
48015;BME280;33780;51.034;7.120;2022-11-03T08:11:02;100382.31;;;12.50;70.58
48015;BME280;33780;51.034;7.120;2022-11-03T08:13:28;100373.81;;;12.55;70.30
48015;BME280;33780;51.034;7.120;2022-11-03T08:15:53;100366.31;;;12.58;70.21
48015;BME280;33780;51.034;7.120;2022-11-03T08:18:19;100366.84;;;12.62;70.26
48015;BME280;33780;51.034;7.120;2022-11-03T08:20:44;100376.28;;;12.66;70.30
48015;BME280;33780;51.034;7.120;2022-11-03T08:23:09;100382.19;;;12.69;70.05
48015;BME280;33780;51.034;7.120;2022-11-03T08:25:36;100381.00;;;12.72;70.25
48015;BME280;33780;51.034;7.120;2022-11-03T08:28:01;100378.06;;;12.75;70.04
48015;BME280;33780;51.034;7.120;2022-11-03T08:30:28;100370.69;;;12.77;69.94
48015;BME280;33780;51.034;7.120;2022-11-03T08:32:53;100375.75;;;12.80;70.06
48015;BME280;33780;51.034;7.120;2022-11-03T08:35:18;100363.69;;;12.84;70.04
48015;BME280;33780;51.034;7.120;2022-11-03T08:37:43;100360.69;;;12.87;70.14
48015;BME280;33780;51.034;7.120;2022-11-03T08:40:09;100353.16;;;12.91;69.72
48015;BME280;33780;51.034;7.120;2022-11-03T08:42:34;100350.19;;;12.94;69.67
48015;BME280;33780;51.034;7.120;2022-11-03T08:45:00;100345.50;;;12.96;69.74
48015;BME280;33780;51.034;7.120;2022-11-03T08:47:25;100347.69;;;13.00;69.61
48015;BME280;33780;51.034;7.120;2022-11-03T08:49:51;100339.16;;;13.05;69.39
48015;BME280;33780;51.034;7.120;2022-11-03T08:52:16;100339.69;;;13.09;69.43
48015;BME280;33780;51.034;7.120;2022-11-03T08:54:41;100333.19;;;13.11;69.72
48015;BME280;33780;51.034;7.120;2022-11-03T08:57:06;100330.84;;;13.16;69.26
48015;BME280;33780;51.034;7.120;2022-11-03T08:59:32;100330.41;;;13.21;69.56
48015;BME280;33780;51.034;7.120;2022-11-03T09:01:57;100320.00;;;13.26;69.07
48015;BME280;33780;51.034;7.120;2022-11-03T09:04:22;100311.50;;;13.30;69.42
48015;BME280;33780;51.034;7.120;2022-11-03T09:06:47;100315.38;;;13.36;68.92
48015;BME280;33780;51.034;7.120;2022-11-03T09:09:13;100307.50;;;13.43;68.98
48015;BME280;33780;51.034;7.120;2022-11-03T09:11:38;100309.59;;;13.49;68.79
48015;BME280;33780;51.034;7.120;2022-11-03T09:14:03;100291.97;;;13.54;68.93
48015;BME280;33780;51.034;7.120;2022-11-03T09:16:28;100290.28;;;13.61;69.05
48015;BME280;33780;51.034;7.120;2022-11-03T09:18:54;100280.94;;;13.66;68.63
48015;BME280;33780;51.034;7.120;2022-11-03T09:21:19;100282.09;;;13.71;68.61
48015;BME280;33780;51.034;7.120;2022-11-03T09:23:44;100273.53;;;13.76;68.15
48015;BME280;33780;51.034;7.120;2022-11-03T09:26:09;100270.53;;;13.79;68.24
48015;BME280;33780;51.034;7.120;2022-11-03T09:28:35;100274.72;;;13.81;68.16
48015;BME280;33780;51.034;7.120;2022-11-03T09:31:00;100259.31;;;13.83;68.11
48015;BME280;33780;51.034;7.120;2022-11-03T09:33:25;100248.22;;;13.86;67.88
48015;BME280;33780;51.034;7.120;2022-11-03T09:35:50;100243.50;;;13.88;67.93
48015;BME280;33780;51.034;7.120;2022-11-03T09:38:16;100235.94;;;13.92;67.84
48015;BME280;33780;51.034;7.120;2022-11-03T09:40:41;100225.84;;;13.94;67.56
48015;BME280;33780;51.034;7.120;2022-11-03T09:43:07;100217.44;;;13.97;67.70
48015;BME280;33780;51.034;7.120;2022-11-03T09:45:32;100208.06;;;14.01;67.42
48015;BME280;33780;51.034;7.120;2022-11-03T09:47:57;100209.56;;;14.04;67.30
48015;BME280;33780;51.034;7.120;2022-11-03T09:50:23;100186.88;;;14.06;67.44
48015;BME280;33780;51.034;7.120;2022-11-03T09:52:48;100188.38;;;14.09;67.12
48015;BME280;33780;51.034;7.120;2022-11-03T09:55:19;100190.56;;;14.13;67.05
48015;BME280;33780;51.034;7.120;2022-11-03T09:57:46;100175.06;;;14.15;66.71
48015;BME280;33780;51.034;7.120;2022-11-03T10:00:17;100185.53;;;14.18;66.53
48015;BME280;33780;51.034;7.120;2022-11-03T10:02:42;100177.28;;;14.20;66.61
48015;BME280;33780;51.034;7.120;2022-11-03T10:05:12;100177.13;;;14.21;66.37
48015;BME280;33780;51.034;7.120;2022-11-03T10:07:38;100171.72;;;14.21;66.20
48015;BME280;33780;51.034;7.120;2022-11-03T10:10:03;100168.03;;;14.23;65.90
48015;BME280;33780;51.034;7.120;2022-11-03T10:12:31;100157.25;;;14.23;66.01
48015;BME280;33780;51.034;7.120;2022-11-03T10:14:59;100151.72;;;14.24;66.02
48015;BME280;33780;51.034;7.120;2022-11-03T10:17:28;100146.16;;;14.26;65.98
48015;BME280;33780;51.034;7.120;2022-11-03T10:19:55;100134.22;;;14.28;66.09
48015;BME280;33780;51.034;7.120;2022-11-03T10:22:22;100115.19;;;14.30;65.53
48015;BME280;33780;51.034;7.120;2022-11-03T10:24:48;100128.47;;;14.31;65.69
48015;BME280;33780;51.034;7.120;2022-11-03T10:27:22;100120.22;;;14.33;65.59
48015;BME280;33780;51.034;7.120;2022-11-03T10:30:08;100126.63;;;14.32;65.59
48015;BME280;33780;51.034;7.120;2022-11-03T10:32:33;100131.00;;;14.33;65.27
48015;BME280;33780;51.034;7.120;2022-11-03T10:34:59;100122.09;;;14.32;65.37
48015;BME280;33780;51.034;7.120;2022-11-03T10:37:25;100131.66;;;14.35;65.54
48015;BME280;33780;51.034;7.120;2022-11-03T10:39:53;100110.97;;;14.35;65.59
48015;BME280;33780;51.034;7.120;2022-11-03T10:42:29;100117.19;;;14.36;65.16
48015;BME280;33780;51.034;7.120;2022-11-03T10:45:18;100100.06;;;14.37;65.15
48015;BME280;33780;51.034;7.120;2022-11-03T10:47:43;100094.69;;;14.37;65.32
48015;BME280;33780;51.034;7.120;2022-11-03T10:50:24;100081.22;;;14.37;65.06
48015;BME280;33780;51.034;7.120;2022-11-03T10:52:50;100076.50;;;14.39;65.29
48015;BME280;33780;51.034;7.120;2022-11-03T10:55:17;100063.88;;;14.39;65.10
48015;BME280;33780;51.034;7.120;2022-11-03T10:57:43;100054.78;;;14.40;64.98
48015;BME280;33780;51.034;7.120;2022-11-03T11:00:14;100055.63;;;14.41;64.93
48015;BME280;33780;51.034;7.120;2022-11-03T11:02:41;100051.91;;;14.42;64.95
48015;BME280;33780;51.034;7.120;2022-11-03T11:05:19;100038.31;;;14.43;65.10
48015;BME280;33780;51.034;7.120;2022-11-03T11:07:45;100042.50;;;14.46;64.88
48015;BME280;33780;51.034;7.120;2022-11-03T11:10:13;100031.72;;;14.46;65.17
48015;BME280;33780;51.034;7.120;2022-11-03T11:15:41;100017.44;;;14.45;64.92
48015;BME280;33780;51.034;7.120;2022-11-03T11:18:07;100004.16;;;14.44;64.64
48015;BME280;33780;51.034;7.120;2022-11-03T11:20:37;100015.91;;;14.43;64.53
48015;BME280;33780;51.034;7.120;2022-11-03T11:28:44;100023.00;;;14.44;64.49
48015;BME280;33780;51.034;7.120;2022-11-03T11:36:44;99999.06;;;14.49;64.23
48015;BME280;33780;51.034;7.120;2022-11-03T11:44:46;100015.38;;;14.56;64.48
48015;BME280;33780;51.034;7.120;2022-11-03T11:47:42;100018.09;;;14.56;64.11
48015;BME280;33780;51.034;7.120;2022-11-03T11:52:47;100014.19;;;14.58;64.12
48015;BME280;33780;51.034;7.120;2022-11-03T11:58:03;99981.72;;;14.60;64.05
48015;BME280;33780;51.034;7.120;2022-11-03T12:00:32;99987.94;;;14.60;63.61
48015;BME280;33780;51.034;7.120;2022-11-03T12:02:59;99970.28;;;14.58;63.86
48015;BME280;33780;51.034;7.120;2022-11-03T12:05:28;99968.41;;;14.58;63.76
48015;BME280;33780;51.034;7.120;2022-11-03T12:07:54;99960.34;;;14.58;63.67
48015;BME280;33780;51.034;7.120;2022-11-03T12:12:47;99922.81;;;14.57;63.71
48015;BME280;33780;51.034;7.120;2022-11-03T12:21:04;99902.50;;;14.46;63.42
48015;BME280;33780;51.034;7.120;2022-11-03T12:23:35;99902.84;;;14.43;63.27
48015;BME280;33780;51.034;7.120;2022-11-03T12:26:02;99900.00;;;14.44;63.62
48015;BME280;33780;51.034;7.120;2022-11-03T12:28:35;99895.44;;;14.45;63.79
48015;BME280;33780;51.034;7.120;2022-11-03T12:31:01;99885.53;;;14.45;63.29
48015;BME280;33780;51.034;7.120;2022-11-03T12:33:27;99880.31;;;14.44;63.25
48015;BME280;33780;51.034;7.120;2022-11-03T12:35:53;99873.06;;;14.44;63.69
48015;BME280;33780;51.034;7.120;2022-11-03T12:38:19;99864.31;;;14.42;63.26
48015;BME280;33780;51.034;7.120;2022-11-03T12:40:44;99867.00;;;14.42;63.76
48015;BME280;33780;51.034;7.120;2022-11-03T12:43:09;99867.84;;;14.43;63.70
48015;BME280;33780;51.034;7.120;2022-11-03T12:45:34;99857.94;;;14.43;63.34
48015;BME280;33780;51.034;7.120;2022-11-03T12:48:00;99850.69;;;14.44;63.55
48015;BME280;33780;51.034;7.120;2022-11-03T12:50:25;99844.31;;;14.45;63.64
48015;BME280;33780;51.034;7.120;2022-11-03T12:52:51;99839.75;;;14.45;63.13
48015;BME280;33780;51.034;7.120;2022-11-03T12:55:16;99838.72;;;14.46;63.42
48015;BME280;33780;51.034;7.120;2022-11-03T12:57:41;99822.75;;;14.45;63.29
48015;BME280;33780;51.034;7.120;2022-11-03T13:00:10;99837.25;;;14.44;63.60
48015;BME280;33780;51.034;7.120;2022-11-03T13:02:36;99819.22;;;14.44;63.67
48015;BME280;33780;51.034;7.120;2022-11-03T13:05:02;99807.13;;;14.40;63.27
48015;BME280;33780;51.034;7.120;2022-11-03T13:07:27;99800.25;;;14.38;63.18
48015;BME280;33780;51.034;7.120;2022-11-03T13:09:52;99794.19;;;14.36;63.30
48015;BME280;33780;51.034;7.120;2022-11-03T13:12:17;99787.31;;;14.33;63.25
48015;BME280;33780;51.034;7.120;2022-11-03T13:15:01;99768.47;;;14.33;63.39
48015;BME280;33780;51.034;7.120;2022-11-03T13:17:28;99767.81;;;14.31;63.28
48015;BME280;33780;51.034;7.120;2022-11-03T13:19:53;99759.56;;;14.33;63.60
48015;BME280;33780;51.034;7.120;2022-11-03T13:22:19;99757.88;;;14.32;63.41
48015;BME280;33780;51.034;7.120;2022-11-03T13:24:44;99741.91;;;14.30;63.52
48015;BME280;33780;51.034;7.120;2022-11-03T13:27:10;99748.13;;;14.31;63.67
48015;BME280;33780;51.034;7.120;2022-11-03T13:29:35;99745.25;;;14.32;63.68
48015;BME280;33780;51.034;7.120;2022-11-03T13:32:01;99729.09;;;14.32;63.30
48015;BME280;33780;51.034;7.120;2022-11-03T13:34:28;99719.19;;;14.33;63.14
48015;BME280;33780;51.034;7.120;2022-11-03T13:36:53;99705.06;;;14.31;63.44
48015;BME280;33780;51.034;7.120;2022-11-03T13:39:18;99701.53;;;14.30;63.38
48015;BME280;33780;51.034;7.120;2022-11-03T13:41:43;99693.66;;;14.29;62.84
48015;BME280;33780;51.034;7.120;2022-11-03T13:44:09;99683.72;;;14.29;63.45
48015;BME280;33780;51.034;7.120;2022-11-03T13:46:34;99682.69;;;14.30;63.60
48015;BME280;33780;51.034;7.120;2022-11-03T13:48:59;99674.44;;;14.32;63.41
48015;BME280;33780;51.034;7.120;2022-11-03T13:51:25;99685.22;;;14.32;63.41
48015;BME280;33780;51.034;7.120;2022-11-03T13:53:50;99675.28;;;14.32;63.42